sensor_id;sensor_type;location;lat;lon;timestamp;P1;durP1;ratioP1;P2;durP2;ratioP2
58101;SDS011;52034;51.926;6.320;2022-12-18T00:00:47;78.23;;;36.83;;
58101;SDS011;52034;51.926;6.320;2022-12-18T00:01:47;76.40;;;36.50;;
58101;SDS011;52034;51.926;6.320;2022-12-18T00:02:48;80.03;;;38.40;;
58101;SDS011;52034;51.926;6.320;2022-12-18T00:03:48;82.63;;;38.40;;
58101;SDS011;52034;51.926;6.320;2022-12-18T00:04:50;83.45;;;37.70;;
58101;SDS011;52034;51.926;6.320;2022-12-18T00:05:51;79.00;;;38.03;;
58101;SDS011;52034;51.926;6.320;2022-12-18T00:06:52;80.65;;;37.70;;
58101;SDS011;52034;51.926;6.320;2022-12-18T00:07:53;76.28;;;37.72;;
58101;SDS011;52034;51.926;6.320;2022-12-18T00:08:54;80.60;;;37.20;;
58101;SDS011;52034;51.926;6.320;2022-12-18T00:09:56;86.07;;;38.83;;
58101;SDS011;52034;51.926;6.320;2022-12-18T00:11:03;73.90;;;36.70;;
58101;SDS011;52034;51.926;6.320;2022-12-18T00:12:04;83.35;;;39.10;;
58101;SDS011;52034;51.926;6.320;2022-12-18T00:13:04;76.37;;;38.10;;
58101;SDS011;52034;51.926;6.320;2022-12-18T00:14:05;74.70;;;37.03;;
58101;SDS011;52034;51.926;6.320;2022-12-18T00:15:05;84.80;;;38.90;;
58101;SDS011;52034;51.926;6.320;2022-12-18T00:16:11;80.72;;;38.95;;
58101;SDS011;52034;51.926;6.320;2022-12-18T00:17:13;72.85;;;37.60;;
58101;SDS011;52034;51.926;6.320;2022-12-18T00:18:13;78.57;;;37.37;;
58101;SDS011;52034;51.926;6.320;2022-12-18T00:19:13;83.00;;;39.70;;
58101;SDS011;52034;51.926;6.320;2022-12-18T00:20:15;76.63;;;37.40;;
58101;SDS011;52034;51.926;6.320;2022-12-18T00:21:15;79.33;;;36.07;;
58101;SDS011;52034;51.926;6.320;2022-12-18T00:22:16;81.43;;;37.13;;
58101;SDS011;52034;51.926;6.320;2022-12-18T00:23:17;79.50;;;37.95;;
58101;SDS011;52034;51.926;6.320;2022-12-18T00:24:17;77.00;;;38.93;;
58101;SDS011;52034;51.926;6.320;2022-12-18T00:25:18;76.45;;;37.10;;
58101;SDS011;52034;51.926;6.320;2022-12-18T00:26:20;78.10;;;36.83;;
58101;SDS011;52034;51.926;6.320;2022-12-18T00:27:31;82.03;;;36.72;;
58101;SDS011;52034;51.926;6.320;2022-12-18T00:28:31;79.50;;;37.47;;
58101;SDS011;52034;51.926;6.320;2022-12-18T00:29:31;72.00;;;36.67;;
58101;SDS011;52034;51.926;6.320;2022-12-18T00:30:32;78.33;;;37.87;;
58101;SDS011;52034;51.926;6.320;2022-12-18T00:31:32;80.17;;;38.03;;
58101;SDS011;52034;51.926;6.320;2022-12-18T00:32:34;76.13;;;36.30;;
58101;SDS011;52034;51.926;6.320;2022-12-18T00:33:36;76.13;;;37.50;;
58101;SDS011;52034;51.926;6.320;2022-12-18T00:34:37;74.43;;;36.75;;
58101;SDS011;52034;51.926;6.320;2022-12-18T00:35:37;78.50;;;37.47;;
58101;SDS011;52034;51.926;6.320;2022-12-18T00:36:38;80.80;;;38.20;;
58101;SDS011;52034;51.926;6.320;2022-12-18T00:37:38;72.28;;;36.92;;
58101;SDS011;52034;51.926;6.320;2022-12-18T00:38:39;74.93;;;37.40;;
58101;SDS011;52034;51.926;6.320;2022-12-18T00:39:40;75.57;;;36.75;;
58101;SDS011;52034;51.926;6.320;2022-12-18T00:40:40;74.70;;;36.67;;
58101;SDS011;52034;51.926;6.320;2022-12-18T00:41:40;73.27;;;37.70;;
58101;SDS011;52034;51.926;6.320;2022-12-18T00:42:59;72.93;;;37.30;;
58101;SDS011;52034;51.926;6.320;2022-12-18T00:44:00;76.50;;;38.00;;
58101;SDS011;52034;51.926;6.320;2022-12-18T00:45:01;75.93;;;37.00;;
58101;SDS011;52034;51.926;6.320;2022-12-18T00:46:01;80.00;;;38.13;;
58101;SDS011;52034;51.926;6.320;2022-12-18T00:47:02;81.23;;;39.90;;
58101;SDS011;52034;51.926;6.320;2022-12-18T00:48:02;81.63;;;39.83;;
58101;SDS011;52034;51.926;6.320;2022-12-18T00:49:03;79.17;;;36.60;;
58101;SDS011;52034;51.926;6.320;2022-12-18T00:50:04;75.93;;;37.05;;
58101;SDS011;52034;51.926;6.320;2022-12-18T00:51:04;79.80;;;39.28;;
58101;SDS011;52034;51.926;6.320;2022-12-18T00:52:06;79.88;;;38.35;;
58101;SDS011;52034;51.926;6.320;2022-12-18T00:53:07;80.77;;;38.63;;
58101;SDS011;52034;51.926;6.320;2022-12-18T00:54:10;79.85;;;38.55;;
58101;SDS011;52034;51.926;6.320;2022-12-18T00:55:11;74.83;;;36.13;;
58101;SDS011;52034;51.926;6.320;2022-12-18T00:56:12;75.05;;;37.67;;
58101;SDS011;52034;51.926;6.320;2022-12-18T00:57:12;76.33;;;38.00;;
58101;SDS011;52034;51.926;6.320;2022-12-18T00:58:13;77.07;;;37.47;;
58101;SDS011;52034;51.926;6.320;2022-12-18T00:59:15;86.05;;;39.33;;
58101;SDS011;52034;51.926;6.320;2022-12-18T01:00:17;80.78;;;38.55;;
58101;SDS011;52034;51.926;6.320;2022-12-18T01:01:18;79.07;;;37.73;;
58101;SDS011;52034;51.926;6.320;2022-12-18T01:02:18;75.93;;;38.30;;
58101;SDS011;52034;51.926;6.320;2022-12-18T01:03:18;75.70;;;37.77;;
58101;SDS011;52034;51.926;6.320;2022-12-18T01:04:19;80.17;;;38.30;;
58101;SDS011;52034;51.926;6.320;2022-12-18T01:05:20;70.17;;;36.17;;
58101;SDS011;52034;51.926;6.320;2022-12-18T01:06:20;80.43;;;37.07;;
58101;SDS011;52034;51.926;6.320;2022-12-18T01:07:20;76.17;;;38.03;;
58101;SDS011;52034;51.926;6.320;2022-12-18T01:08:21;76.23;;;36.67;;
58101;SDS011;52034;51.926;6.320;2022-12-18T01:09:21;72.90;;;37.47;;
58101;SDS011;52034;51.926;6.320;2022-12-18T01:10:22;79.13;;;36.90;;
58101;SDS011;52034;51.926;6.320;2022-12-18T01:11:23;69.72;;;36.03;;
58101;SDS011;52034;51.926;6.320;2022-12-18T01:12:24;73.80;;;37.22;;
58101;SDS011;52034;51.926;6.320;2022-12-18T01:13:24;71.13;;;35.67;;
58101;SDS011;52034;51.926;6.320;2022-12-18T01:14:24;74.77;;;35.80;;
58101;SDS011;52034;51.926;6.320;2022-12-18T01:15:26;72.60;;;37.03;;
58101;SDS011;52034;51.926;6.320;2022-12-18T01:16:27;71.33;;;35.90;;
58101;SDS011;52034;51.926;6.320;2022-12-18T01:17:27;72.87;;;36.87;;
58101;SDS011;52034;51.926;6.320;2022-12-18T01:18:27;72.43;;;37.37;;
58101;SDS011;52034;51.926;6.320;2022-12-18T01:19:28;75.33;;;37.20;;
58101;SDS011;52034;51.926;6.320;2022-12-18T01:20:28;77.93;;;36.33;;
58101;SDS011;52034;51.926;6.320;2022-12-18T01:21:29;74.10;;;38.43;;
58101;SDS011;52034;51.926;6.320;2022-12-18T01:22:29;74.13;;;37.50;;
58101;SDS011;52034;51.926;6.320;2022-12-18T01:23:29;73.53;;;37.07;;
58101;SDS011;52034;51.926;6.320;2022-12-18T01:24:30;69.37;;;36.57;;
58101;SDS011;52034;51.926;6.320;2022-12-18T01:25:31;75.20;;;38.63;;
58101;SDS011;52034;51.926;6.320;2022-12-18T01:26:31;72.17;;;36.17;;
58101;SDS011;52034;51.926;6.320;2022-12-18T01:27:33;77.00;;;36.33;;
58101;SDS011;52034;51.926;6.320;2022-12-18T01:29:35;72.22;;;37.13;;
58101;SDS011;52034;51.926;6.320;2022-12-18T01:30:36;75.50;;;38.20;;
58101;SDS011;52034;51.926;6.320;2022-12-18T01:31:36;74.43;;;36.30;;
58101;SDS011;52034;51.926;6.320;2022-12-18T01:32:37;72.03;;;36.83;;
58101;SDS011;52034;51.926;6.320;2022-12-18T01:33:37;75.20;;;37.53;;
58101;SDS011;52034;51.926;6.320;2022-12-18T01:34:37;72.13;;;36.47;;
58101;SDS011;52034;51.926;6.320;2022-12-18T01:35:41;73.60;;;37.23;;
58101;SDS011;52034;51.926;6.320;2022-12-18T01:36:42;75.05;;;37.83;;
58101;SDS011;52034;51.926;6.320;2022-12-18T01:37:42;76.50;;;37.30;;
58101;SDS011;52034;51.926;6.320;2022-12-18T01:38:43;70.87;;;36.17;;
58101;SDS011;52034;51.926;6.320;2022-12-18T01:39:44;74.82;;;36.80;;
58101;SDS011;52034;51.926;6.320;2022-12-18T01:40:44;76.20;;;37.00;;
58101;SDS011;52034;51.926;6.320;2022-12-18T01:41:45;73.53;;;36.87;;
58101;SDS011;52034;51.926;6.320;2022-12-18T01:43:04;76.80;;;38.55;;
58101;SDS011;52034;51.926;6.320;2022-12-18T01:44:46;73.87;;;36.90;;
58101;SDS011;52034;51.926;6.320;2022-12-18T01:45:43;74.50;;;36.63;;
58101;SDS011;52034;51.926;6.320;2022-12-18T01:46:44;70.33;;;35.97;;
58101;SDS011;52034;51.926;6.320;2022-12-18T01:48:59;67.45;;;35.70;;
58101;SDS011;52034;51.926;6.320;2022-12-18T01:50:03;67.82;;;35.55;;
58101;SDS011;52034;51.926;6.320;2022-12-18T01:51:08;69.65;;;36.08;;
58101;SDS011;52034;51.926;6.320;2022-12-18T01:52:09;68.63;;;36.20;;
58101;SDS011;52034;51.926;6.320;2022-12-18T01:53:11;71.45;;;35.22;;
58101;SDS011;52034;51.926;6.320;2022-12-18T01:54:15;66.20;;;34.03;;
58101;SDS011;52034;51.926;6.320;2022-12-18T01:55:17;67.95;;;35.80;;
58101;SDS011;52034;51.926;6.320;2022-12-18T01:56:20;66.93;;;35.05;;
58101;SDS011;52034;51.926;6.320;2022-12-18T01:57:23;67.57;;;35.42;;
58101;SDS011;52034;51.926;6.320;2022-12-18T01:59:55;68.65;;;35.88;;
58101;SDS011;52034;51.926;6.320;2022-12-18T02:00:58;65.45;;;34.40;;
58101;SDS011;52034;51.926;6.320;2022-12-18T02:01:59;72.70;;;36.73;;
58101;SDS011;52034;51.926;6.320;2022-12-18T02:03:00;69.65;;;35.20;;
58101;SDS011;52034;51.926;6.320;2022-12-18T02:04:20;70.10;;;36.53;;
58101;SDS011;52034;51.926;6.320;2022-12-18T02:05:26;71.53;;;34.65;;
58101;SDS011;52034;51.926;6.320;2022-12-18T02:06:39;66.63;;;35.15;;
58101;SDS011;52034;51.926;6.320;2022-12-18T02:07:51;80.63;;;38.00;;
58101;SDS011;52034;51.926;6.320;2022-12-18T02:09:10;64.13;;;34.65;;
58101;SDS011;52034;51.926;6.320;2022-12-18T02:10:20;66.15;;;35.58;;
58101;SDS011;52034;51.926;6.320;2022-12-18T02:11:32;66.78;;;35.50;;
58101;SDS011;52034;51.926;6.320;2022-12-18T02:12:58;73.50;;;36.05;;
58101;SDS011;52034;51.926;6.320;2022-12-18T02:15:14;65.57;;;35.38;;
58101;SDS011;52034;51.926;6.320;2022-12-18T02:16:30;67.47;;;35.42;;
58101;SDS011;52034;51.926;6.320;2022-12-18T02:17:41;68.47;;;34.42;;
58101;SDS011;52034;51.926;6.320;2022-12-18T02:18:51;70.70;;;36.08;;
58101;SDS011;52034;51.926;6.320;2022-12-18T02:23:05;68.97;;;36.20;;
58101;SDS011;52034;51.926;6.320;2022-12-18T02:24:38;65.65;;;35.50;;
58101;SDS011;52034;51.926;6.320;2022-12-18T02:25:53;66.45;;;34.63;;
58101;SDS011;52034;51.926;6.320;2022-12-18T02:27:06;64.53;;;34.28;;
58101;SDS011;52034;51.926;6.320;2022-12-18T02:28:09;68.32;;;34.35;;
58101;SDS011;52034;51.926;6.320;2022-12-18T02:29:18;63.70;;;34.10;;
58101;SDS011;52034;51.926;6.320;2022-12-18T02:30:23;63.75;;;34.30;;
58101;SDS011;52034;51.926;6.320;2022-12-18T02:31:24;64.22;;;32.92;;
58101;SDS011;52034;51.926;6.320;2022-12-18T02:32:32;68.20;;;34.58;;
58101;SDS011;52034;51.926;6.320;2022-12-18T02:33:37;66.57;;;34.05;;
58101;SDS011;52034;51.926;6.320;2022-12-18T02:34:40;62.10;;;33.78;;
58101;SDS011;52034;51.926;6.320;2022-12-18T02:35:47;61.97;;;33.75;;
58101;SDS011;52034;51.926;6.320;2022-12-18T02:37:51;69.13;;;34.28;;
58101;SDS011;52034;51.926;6.320;2022-12-18T02:38:53;59.92;;;33.78;;
58101;SDS011;52034;51.926;6.320;2022-12-18T02:39:56;62.08;;;33.92;;
58101;SDS011;52034;51.926;6.320;2022-12-18T02:40:58;61.35;;;33.60;;
58101;SDS011;52034;51.926;6.320;2022-12-18T02:42:00;59.30;;;32.80;;
58101;SDS011;52034;51.926;6.320;2022-12-18T02:43:11;66.70;;;33.55;;
58101;SDS011;52034;51.926;6.320;2022-12-18T02:44:13;62.20;;;33.58;;
58101;SDS011;52034;51.926;6.320;2022-12-18T02:45:15;62.67;;;34.33;;
58101;SDS011;52034;51.926;6.320;2022-12-18T02:46:35;59.97;;;33.43;;
58101;SDS011;52034;51.926;6.320;2022-12-18T02:47:44;63.33;;;33.42;;
58101;SDS011;52034;51.926;6.320;2022-12-18T02:48:48;60.90;;;33.63;;
58101;SDS011;52034;51.926;6.320;2022-12-18T02:50:59;64.05;;;32.42;;
58101;SDS011;52034;51.926;6.320;2022-12-18T02:54:48;59.28;;;31.20;;
58101;SDS011;52034;51.926;6.320;2022-12-18T03:00:16;58.70;;;33.03;;
58101;SDS011;52034;51.926;6.320;2022-12-18T03:02:47;60.42;;;32.10;;
58101;SDS011;52034;51.926;6.320;2022-12-18T03:05:01;57.55;;;32.00;;
58101;SDS011;52034;51.926;6.320;2022-12-18T03:06:10;60.90;;;32.80;;
58101;SDS011;52034;51.926;6.320;2022-12-18T03:07:20;58.58;;;33.25;;
58101;SDS011;52034;51.926;6.320;2022-12-18T03:08:43;61.03;;;31.30;;
58101;SDS011;52034;51.926;6.320;2022-12-18T03:09:49;59.25;;;31.90;;
58101;SDS011;52034;51.926;6.320;2022-12-18T03:10:54;60.97;;;31.42;;
58101;SDS011;52034;51.926;6.320;2022-12-18T03:12:04;57.22;;;31.77;;
58101;SDS011;52034;51.926;6.320;2022-12-18T03:13:28;60.95;;;31.83;;
58101;SDS011;52034;51.926;6.320;2022-12-18T03:14:35;56.30;;;31.17;;
58101;SDS011;52034;51.926;6.320;2022-12-18T03:15:39;63.22;;;32.42;;
58101;SDS011;52034;51.926;6.320;2022-12-18T03:16:47;60.10;;;31.77;;
58101;SDS011;52034;51.926;6.320;2022-12-18T03:17:55;62.15;;;31.00;;
58101;SDS011;52034;51.926;6.320;2022-12-18T03:19:01;54.40;;;30.45;;
58101;SDS011;52034;51.926;6.320;2022-12-18T03:20:17;60.30;;;30.52;;
58101;SDS011;52034;51.926;6.320;2022-12-18T03:21:23;52.47;;;30.23;;
58101;SDS011;52034;51.926;6.320;2022-12-18T03:22:32;55.10;;;30.77;;
58101;SDS011;52034;51.926;6.320;2022-12-18T03:23:40;58.83;;;30.73;;
58101;SDS011;52034;51.926;6.320;2022-12-18T03:24:48;56.80;;;31.05;;
58101;SDS011;52034;51.926;6.320;2022-12-18T03:25:49;52.20;;;29.35;;
58101;SDS011;52034;51.926;6.320;2022-12-18T03:26:57;54.97;;;30.27;;
58101;SDS011;52034;51.926;6.320;2022-12-18T03:28:02;53.22;;;29.20;;
58101;SDS011;52034;51.926;6.320;2022-12-18T03:29:11;56.20;;;30.80;;
58101;SDS011;52034;51.926;6.320;2022-12-18T03:30:15;58.15;;;30.80;;
58101;SDS011;52034;51.926;6.320;2022-12-18T03:31:18;56.17;;;29.10;;
58101;SDS011;52034;51.926;6.320;2022-12-18T03:32:26;55.95;;;29.92;;
58101;SDS011;52034;51.926;6.320;2022-12-18T03:33:37;55.92;;;30.85;;
58101;SDS011;52034;51.926;6.320;2022-12-18T03:34:42;55.60;;;30.73;;
58101;SDS011;52034;51.926;6.320;2022-12-18T03:35:49;56.88;;;30.85;;
58101;SDS011;52034;51.926;6.320;2022-12-18T03:36:51;48.83;;;28.20;;
58101;SDS011;52034;51.926;6.320;2022-12-18T03:37:52;54.85;;;29.15;;
58101;SDS011;52034;51.926;6.320;2022-12-18T03:38:52;57.57;;;30.37;;
58101;SDS011;52034;51.926;6.320;2022-12-18T03:39:54;54.20;;;29.77;;
58101;SDS011;52034;51.926;6.320;2022-12-18T03:41:01;51.53;;;29.38;;
58101;SDS011;52034;51.926;6.320;2022-12-18T03:42:25;54.70;;;29.77;;
58101;SDS011;52034;51.926;6.320;2022-12-18T03:44:40;55.00;;;30.25;;
58101;SDS011;52034;51.926;6.320;2022-12-18T03:45:51;54.65;;;30.23;;
58101;SDS011;52034;51.926;6.320;2022-12-18T03:47:04;50.22;;;29.25;;
58101;SDS011;52034;51.926;6.320;2022-12-18T03:49:56;52.17;;;29.48;;
58101;SDS011;52034;51.926;6.320;2022-12-18T03:51:08;52.92;;;29.65;;
58101;SDS011;52034;51.926;6.320;2022-12-18T03:52:21;53.85;;;29.23;;
58101;SDS011;52034;51.926;6.320;2022-12-18T03:55:05;46.42;;;27.60;;
58101;SDS011;52034;51.926;6.320;2022-12-18T03:56:08;48.92;;;28.50;;
58101;SDS011;52034;51.926;6.320;2022-12-18T03:57:16;50.50;;;27.63;;
58101;SDS011;52034;51.926;6.320;2022-12-18T03:58:23;48.05;;;27.90;;
58101;SDS011;52034;51.926;6.320;2022-12-18T03:59:32;50.03;;;28.85;;
58101;SDS011;52034;51.926;6.320;2022-12-18T04:00:34;47.42;;;27.08;;
58101;SDS011;52034;51.926;6.320;2022-12-18T04:01:42;48.10;;;28.50;;
58101;SDS011;52034;51.926;6.320;2022-12-18T04:02:49;46.05;;;26.67;;
58101;SDS011;52034;51.926;6.320;2022-12-18T04:03:57;49.42;;;28.45;;
58101;SDS011;52034;51.926;6.320;2022-12-18T04:05:00;47.50;;;27.50;;
58101;SDS011;52034;51.926;6.320;2022-12-18T04:06:06;48.30;;;28.50;;
58101;SDS011;52034;51.926;6.320;2022-12-18T04:07:07;47.35;;;26.90;;
58101;SDS011;52034;51.926;6.320;2022-12-18T04:08:11;48.15;;;27.33;;
58101;SDS011;52034;51.926;6.320;2022-12-18T04:09:17;49.10;;;26.75;;
58101;SDS011;52034;51.926;6.320;2022-12-18T04:10:20;47.40;;;26.52;;
58101;SDS011;52034;51.926;6.320;2022-12-18T04:11:21;46.97;;;26.20;;
58101;SDS011;52034;51.926;6.320;2022-12-18T04:12:25;48.08;;;26.38;;
58101;SDS011;52034;51.926;6.320;2022-12-18T04:13:34;48.22;;;26.55;;
58101;SDS011;52034;51.926;6.320;2022-12-18T04:14:39;42.50;;;26.23;;
58101;SDS011;52034;51.926;6.320;2022-12-18T04:15:42;49.03;;;27.08;;
58101;SDS011;52034;51.926;6.320;2022-12-18T04:16:46;43.28;;;25.90;;
58101;SDS011;52034;51.926;6.320;2022-12-18T04:17:49;42.80;;;25.60;;
58101;SDS011;52034;51.926;6.320;2022-12-18T04:18:54;47.05;;;26.70;;
58101;SDS011;52034;51.926;6.320;2022-12-18T04:19:56;46.85;;;25.85;;
58101;SDS011;52034;51.926;6.320;2022-12-18T04:20:58;47.90;;;26.63;;
58101;SDS011;52034;51.926;6.320;2022-12-18T04:21:58;45.72;;;27.33;;
58101;SDS011;52034;51.926;6.320;2022-12-18T04:23:00;43.53;;;26.42;;
58101;SDS011;52034;51.926;6.320;2022-12-18T04:24:00;45.17;;;26.05;;
58101;SDS011;52034;51.926;6.320;2022-12-18T04:26:09;45.42;;;26.15;;
58101;SDS011;52034;51.926;6.320;2022-12-18T04:27:19;44.92;;;26.20;;
58101;SDS011;52034;51.926;6.320;2022-12-18T04:28:22;42.22;;;25.50;;
58101;SDS011;52034;51.926;6.320;2022-12-18T04:29:23;46.10;;;25.73;;
58101;SDS011;52034;51.926;6.320;2022-12-18T04:30:23;48.13;;;26.43;;
58101;SDS011;52034;51.926;6.320;2022-12-18T04:31:24;45.80;;;25.27;;
58101;SDS011;52034;51.926;6.320;2022-12-18T04:32:25;44.47;;;26.15;;
58101;SDS011;52034;51.926;6.320;2022-12-18T04:33:25;44.83;;;26.10;;
58101;SDS011;52034;51.926;6.320;2022-12-18T04:34:25;43.47;;;25.23;;
58101;SDS011;52034;51.926;6.320;2022-12-18T04:35:27;44.63;;;27.13;;
58101;SDS011;52034;51.926;6.320;2022-12-18T04:36:28;43.50;;;24.55;;
58101;SDS011;52034;51.926;6.320;2022-12-18T04:37:29;41.55;;;25.05;;
58101;SDS011;52034;51.926;6.320;2022-12-18T04:38:30;44.92;;;26.20;;
58101;SDS011;52034;51.926;6.320;2022-12-18T04:39:37;39.70;;;23.80;;
58101;SDS011;52034;51.926;6.320;2022-12-18T04:40:43;40.20;;;24.95;;
58101;SDS011;52034;51.926;6.320;2022-12-18T04:41:51;41.22;;;24.38;;
58101;SDS011;52034;51.926;6.320;2022-12-18T04:42:51;41.10;;;24.47;;
58101;SDS011;52034;51.926;6.320;2022-12-18T04:43:51;43.63;;;24.60;;
58101;SDS011;52034;51.926;6.320;2022-12-18T04:44:52;40.23;;;24.83;;
58101;SDS011;52034;51.926;6.320;2022-12-18T04:45:52;42.80;;;25.40;;
58101;SDS011;52034;51.926;6.320;2022-12-18T04:46:52;44.13;;;25.70;;
58101;SDS011;52034;51.926;6.320;2022-12-18T04:47:53;43.73;;;24.83;;
58101;SDS011;52034;51.926;6.320;2022-12-18T04:48:53;44.70;;;25.83;;
58101;SDS011;52034;51.926;6.320;2022-12-18T04:49:54;41.27;;;24.53;;
58101;SDS011;52034;51.926;6.320;2022-12-18T04:50:54;43.80;;;25.27;;
58101;SDS011;52034;51.926;6.320;2022-12-18T04:51:54;45.47;;;25.17;;
58101;SDS011;52034;51.926;6.320;2022-12-18T04:52:55;43.03;;;25.47;;
58101;SDS011;52034;51.926;6.320;2022-12-18T04:53:55;43.93;;;25.93;;
58101;SDS011;52034;51.926;6.320;2022-12-18T04:54:55;41.93;;;25.60;;
58101;SDS011;52034;51.926;6.320;2022-12-18T04:56:06;45.30;;;24.70;;
58101;SDS011;52034;51.926;6.320;2022-12-18T04:57:08;41.35;;;24.85;;
58101;SDS011;52034;51.926;6.320;2022-12-18T04:58:08;42.43;;;24.30;;
58101;SDS011;52034;51.926;6.320;2022-12-18T04:59:09;38.43;;;23.13;;
58101;SDS011;52034;51.926;6.320;2022-12-18T05:00:09;41.53;;;24.67;;
58101;SDS011;52034;51.926;6.320;2022-12-18T05:01:11;44.83;;;25.52;;
58101;SDS011;52034;51.926;6.320;2022-12-18T05:02:12;44.33;;;25.00;;
58101;SDS011;52034;51.926;6.320;2022-12-18T05:03:13;40.67;;;24.67;;
58101;SDS011;52034;51.926;6.320;2022-12-18T05:04:13;45.23;;;26.00;;
58101;SDS011;52034;51.926;6.320;2022-12-18T05:05:13;46.60;;;26.23;;
58101;SDS011;52034;51.926;6.320;2022-12-18T05:06:14;50.08;;;26.63;;
58101;SDS011;52034;51.926;6.320;2022-12-18T05:07:14;45.47;;;26.07;;
58101;SDS011;52034;51.926;6.320;2022-12-18T05:08:15;46.43;;;26.80;;
58101;SDS011;52034;51.926;6.320;2022-12-18T05:09:15;41.67;;;24.37;;
58101;SDS011;52034;51.926;6.320;2022-12-18T05:10:15;44.43;;;25.83;;
58101;SDS011;52034;51.926;6.320;2022-12-18T05:11:16;45.10;;;24.97;;
58101;SDS011;52034;51.926;6.320;2022-12-18T05:12:16;43.13;;;25.50;;
58101;SDS011;52034;51.926;6.320;2022-12-18T05:13:17;47.60;;;26.03;;
58101;SDS011;52034;51.926;6.320;2022-12-18T05:14:17;43.90;;;25.93;;
58101;SDS011;52034;51.926;6.320;2022-12-18T05:15:18;45.60;;;25.67;;
58101;SDS011;52034;51.926;6.320;2022-12-18T05:16:18;44.33;;;25.43;;
58101;SDS011;52034;51.926;6.320;2022-12-18T05:17:18;45.60;;;25.30;;
58101;SDS011;52034;51.926;6.320;2022-12-18T05:18:19;45.03;;;24.70;;
58101;SDS011;52034;51.926;6.320;2022-12-18T05:19:19;41.90;;;24.80;;
58101;SDS011;52034;51.926;6.320;2022-12-18T05:20:19;42.27;;;25.37;;
58101;SDS011;52034;51.926;6.320;2022-12-18T05:21:20;48.00;;;25.30;;
58101;SDS011;52034;51.926;6.320;2022-12-18T05:22:20;45.43;;;24.83;;
58101;SDS011;52034;51.926;6.320;2022-12-18T05:23:21;44.87;;;25.03;;
58101;SDS011;52034;51.926;6.320;2022-12-18T05:24:22;45.72;;;25.98;;
58101;SDS011;52034;51.926;6.320;2022-12-18T05:25:23;46.77;;;25.27;;
58101;SDS011;52034;51.926;6.320;2022-12-18T05:26:23;47.85;;;25.80;;
58101;SDS011;52034;51.926;6.320;2022-12-18T05:27:24;50.63;;;27.10;;
58101;SDS011;52034;51.926;6.320;2022-12-18T05:28:25;47.53;;;26.50;;
58101;SDS011;52034;51.926;6.320;2022-12-18T05:29:27;46.85;;;26.40;;
58101;SDS011;52034;51.926;6.320;2022-12-18T05:30:27;48.23;;;28.23;;
58101;SDS011;52034;51.926;6.320;2022-12-18T05:31:28;49.17;;;27.13;;
58101;SDS011;52034;51.926;6.320;2022-12-18T05:32:28;43.73;;;26.37;;
58101;SDS011;52034;51.926;6.320;2022-12-18T05:33:30;48.77;;;26.27;;
58101;SDS011;52034;51.926;6.320;2022-12-18T05:34:31;44.63;;;26.25;;
58101;SDS011;52034;51.926;6.320;2022-12-18T05:36:33;47.63;;;26.00;;
58101;SDS011;52034;51.926;6.320;2022-12-18T05:37:34;44.80;;;25.10;;
58101;SDS011;52034;51.926;6.320;2022-12-18T05:38:35;46.58;;;25.75;;
58101;SDS011;52034;51.926;6.320;2022-12-18T05:39:36;47.22;;;25.45;;
58101;SDS011;52034;51.926;6.320;2022-12-18T05:40:37;44.97;;;25.87;;
58101;SDS011;52034;51.926;6.320;2022-12-18T05:41:37;47.70;;;26.17;;
58101;SDS011;52034;51.926;6.320;2022-12-18T05:42:37;48.03;;;26.07;;
58101;SDS011;52034;51.926;6.320;2022-12-18T05:43:38;48.03;;;26.07;;
58101;SDS011;52034;51.926;6.320;2022-12-18T05:45:40;44.47;;;26.73;;
58101;SDS011;52034;51.926;6.320;2022-12-18T05:46:41;46.50;;;25.73;;
58101;SDS011;52034;51.926;6.320;2022-12-18T05:47:41;46.67;;;25.77;;
58101;SDS011;52034;51.926;6.320;2022-12-18T05:48:42;48.90;;;27.07;;
58101;SDS011;52034;51.926;6.320;2022-12-18T05:49:42;51.63;;;26.88;;
58101;SDS011;52034;51.926;6.320;2022-12-18T05:50:43;47.93;;;27.20;;
58101;SDS011;52034;51.926;6.320;2022-12-18T05:51:45;46.63;;;26.55;;
58101;SDS011;52034;51.926;6.320;2022-12-18T05:52:46;46.60;;;26.27;;
58101;SDS011;52034;51.926;6.320;2022-12-18T05:53:46;46.93;;;27.13;;
58101;SDS011;52034;51.926;6.320;2022-12-18T05:54:47;46.28;;;26.15;;
58101;SDS011;52034;51.926;6.320;2022-12-18T05:55:47;47.40;;;26.63;;
58101;SDS011;52034;51.926;6.320;2022-12-18T05:56:48;49.33;;;27.87;;
58101;SDS011;52034;51.926;6.320;2022-12-18T05:57:48;44.77;;;26.43;;
58101;SDS011;52034;51.926;6.320;2022-12-18T05:58:51;43.50;;;25.87;;
58101;SDS011;52034;51.926;6.320;2022-12-18T05:59:52;45.85;;;26.58;;
58101;SDS011;52034;51.926;6.320;2022-12-18T06:00:53;46.07;;;26.30;;
58101;SDS011;52034;51.926;6.320;2022-12-18T06:01:53;46.47;;;26.73;;
58101;SDS011;52034;51.926;6.320;2022-12-18T06:02:54;48.57;;;27.53;;
58101;SDS011;52034;51.926;6.320;2022-12-18T06:03:54;48.43;;;25.47;;
58101;SDS011;52034;51.926;6.320;2022-12-18T06:04:55;46.70;;;26.10;;
58101;SDS011;52034;51.926;6.320;2022-12-18T06:05:55;47.50;;;26.33;;
58101;SDS011;52034;51.926;6.320;2022-12-18T06:06:55;47.03;;;27.13;;
58101;SDS011;52034;51.926;6.320;2022-12-18T06:07:56;44.10;;;25.60;;
58101;SDS011;52034;51.926;6.320;2022-12-18T06:08:56;45.67;;;25.67;;
58101;SDS011;52034;51.926;6.320;2022-12-18T06:09:57;55.20;;;27.48;;
58101;SDS011;52034;51.926;6.320;2022-12-18T06:10:58;51.17;;;26.97;;
58101;SDS011;52034;51.926;6.320;2022-12-18T06:11:58;40.93;;;26.40;;
58101;SDS011;52034;51.926;6.320;2022-12-18T06:12:58;44.93;;;26.63;;
58101;SDS011;52034;51.926;6.320;2022-12-18T06:13:59;50.53;;;27.53;;
58101;SDS011;52034;51.926;6.320;2022-12-18T06:14:59;48.07;;;26.57;;
58101;SDS011;52034;51.926;6.320;2022-12-18T06:16:04;46.90;;;25.80;;
58101;SDS011;52034;51.926;6.320;2022-12-18T06:17:05;45.50;;;25.42;;
58101;SDS011;52034;51.926;6.320;2022-12-18T06:18:05;50.33;;;27.30;;
58101;SDS011;52034;51.926;6.320;2022-12-18T06:19:06;45.60;;;26.00;;
58101;SDS011;52034;51.926;6.320;2022-12-18T06:20:06;46.53;;;26.63;;
58101;SDS011;52034;51.926;6.320;2022-12-18T06:21:07;47.63;;;27.40;;
58101;SDS011;52034;51.926;6.320;2022-12-18T06:22:07;46.37;;;25.97;;
58101;SDS011;52034;51.926;6.320;2022-12-18T06:23:07;48.10;;;26.53;;
58101;SDS011;52034;51.926;6.320;2022-12-18T06:25:10;49.30;;;26.63;;
58101;SDS011;52034;51.926;6.320;2022-12-18T06:26:11;48.10;;;27.53;;
58101;SDS011;52034;51.926;6.320;2022-12-18T06:27:12;53.03;;;27.45;;
58101;SDS011;52034;51.926;6.320;2022-12-18T06:28:12;43.77;;;25.80;;
58101;SDS011;52034;51.926;6.320;2022-12-18T06:29:13;47.73;;;25.93;;
58101;SDS011;52034;51.926;6.320;2022-12-18T06:30:13;46.40;;;26.47;;
58101;SDS011;52034;51.926;6.320;2022-12-18T06:31:15;49.25;;;26.67;;
58101;SDS011;52034;51.926;6.320;2022-12-18T06:32:15;45.87;;;27.17;;
58101;SDS011;52034;51.926;6.320;2022-12-18T06:33:16;47.17;;;27.00;;
58101;SDS011;52034;51.926;6.320;2022-12-18T06:34:16;50.90;;;28.15;;
58101;SDS011;52034;51.926;6.320;2022-12-18T06:35:17;52.83;;;27.50;;
58101;SDS011;52034;51.926;6.320;2022-12-18T06:36:17;49.63;;;26.90;;
58101;SDS011;52034;51.926;6.320;2022-12-18T06:37:17;46.57;;;26.53;;
58101;SDS011;52034;51.926;6.320;2022-12-18T06:38:18;45.83;;;26.10;;